sensor_id;sensor_type;location;lat;lon;timestamp;P1;durP1;ratioP1;P2;durP2;ratioP2
51558;SDS011;61650;48.882;2.092;2023-01-23T00:02:17;22.47;;;12.20;;
51558;SDS011;61650;48.882;2.092;2023-01-23T00:04:43;22.90;;;13.07;;
51558;SDS011;61650;48.882;2.092;2023-01-23T00:07:09;21.00;;;12.50;;
51558;SDS011;61650;48.882;2.092;2023-01-23T00:09:34;22.07;;;12.90;;
51558;SDS011;61650;48.882;2.092;2023-01-23T00:12:00;20.83;;;13.10;;
51558;SDS011;61650;48.882;2.092;2023-01-23T00:14:26;22.63;;;12.37;;
51558;SDS011;61650;48.882;2.092;2023-01-23T00:16:51;24.40;;;13.00;;
51558;SDS011;61650;48.882;2.092;2023-01-23T00:19:17;21.33;;;13.63;;
51558;SDS011;61650;48.882;2.092;2023-01-23T00:21:43;22.88;;;13.77;;
51558;SDS011;61650;48.882;2.092;2023-01-23T00:24:09;23.40;;;12.80;;
51558;SDS011;61650;48.882;2.092;2023-01-23T00:26:36;22.25;;;13.00;;
51558;SDS011;61650;48.882;2.092;2023-01-23T00:29:02;24.33;;;12.30;;
51558;SDS011;61650;48.882;2.092;2023-01-23T00:31:30;23.15;;;13.20;;
51558;SDS011;61650;48.882;2.092;2023-01-23T00:34:04;23.80;;;12.77;;
51558;SDS011;61650;48.882;2.092;2023-01-23T00:36:34;20.80;;;12.77;;
51558;SDS011;61650;48.882;2.092;2023-01-23T00:39:02;24.40;;;13.23;;
51558;SDS011;61650;48.882;2.092;2023-01-23T00:41:30;21.67;;;12.73;;
51558;SDS011;61650;48.882;2.092;2023-01-23T00:43:56;19.43;;;12.87;;
51558;SDS011;61650;48.882;2.092;2023-01-23T00:46:22;26.27;;;14.57;;
51558;SDS011;61650;48.882;2.092;2023-01-23T00:48:48;25.07;;;14.17;;
51558;SDS011;61650;48.882;2.092;2023-01-23T00:51:14;25.17;;;14.10;;
51558;SDS011;61650;48.882;2.092;2023-01-23T00:53:39;19.73;;;12.87;;
51558;SDS011;61650;48.882;2.092;2023-01-23T00:56:05;22.07;;;13.27;;
51558;SDS011;61650;48.882;2.092;2023-01-23T00:58:31;22.80;;;13.05;;
51558;SDS011;61650;48.882;2.092;2023-01-23T01:00:57;25.97;;;15.00;;
51558;SDS011;61650;48.882;2.092;2023-01-23T01:03:22;24.57;;;13.40;;
51558;SDS011;61650;48.882;2.092;2023-01-23T01:05:49;24.42;;;14.70;;
51558;SDS011;61650;48.882;2.092;2023-01-23T01:08:15;25.73;;;14.48;;
51558;SDS011;61650;48.882;2.092;2023-01-23T01:10:41;23.90;;;13.20;;
51558;SDS011;61650;48.882;2.092;2023-01-23T01:13:07;24.33;;;12.50;;
51558;SDS011;61650;48.882;2.092;2023-01-23T01:15:33;25.48;;;14.55;;
51558;SDS011;61650;48.882;2.092;2023-01-23T01:18:00;23.23;;;14.25;;
51558;SDS011;61650;48.882;2.092;2023-01-23T01:20:26;24.07;;;13.50;;
51558;SDS011;61650;48.882;2.092;2023-01-23T01:22:53;27.15;;;13.82;;
51558;SDS011;61650;48.882;2.092;2023-01-23T01:25:20;21.40;;;13.07;;
51558;SDS011;61650;48.882;2.092;2023-01-23T01:27:46;28.33;;;14.60;;
51558;SDS011;61650;48.882;2.092;2023-01-23T01:30:12;26.43;;;12.87;;
51558;SDS011;61650;48.882;2.092;2023-01-23T01:32:39;23.92;;;14.10;;
51558;SDS011;61650;48.882;2.092;2023-01-23T01:35:06;23.75;;;13.90;;
51558;SDS011;61650;48.882;2.092;2023-01-23T01:37:33;22.13;;;13.43;;
51558;SDS011;61650;48.882;2.092;2023-01-23T01:40:03;22.75;;;13.55;;
51558;SDS011;61650;48.882;2.092;2023-01-23T01:42:30;25.13;;;13.15;;
51558;SDS011;61650;48.882;2.092;2023-01-23T01:44:57;24.00;;;14.27;;
51558;SDS011;61650;48.882;2.092;2023-01-23T01:47:24;24.73;;;13.55;;
51558;SDS011;61650;48.882;2.092;2023-01-23T01:49:51;23.40;;;13.45;;
51558;SDS011;61650;48.882;2.092;2023-01-23T01:52:19;25.92;;;13.65;;
51558;SDS011;61650;48.882;2.092;2023-01-23T01:54:51;26.38;;;14.13;;
51558;SDS011;61650;48.882;2.092;2023-01-23T01:59:57;20.27;;;13.55;;
51558;SDS011;61650;48.882;2.092;2023-01-23T02:02:35;23.55;;;14.57;;
51558;SDS011;61650;48.882;2.092;2023-01-23T02:05:09;23.92;;;13.02;;
51558;SDS011;61650;48.882;2.092;2023-01-23T02:07:42;21.23;;;13.30;;
51558;SDS011;61650;48.882;2.092;2023-01-23T02:10:11;25.27;;;12.82;;
51558;SDS011;61650;48.882;2.092;2023-01-23T02:12:38;22.52;;;13.25;;
51558;SDS011;61650;48.882;2.092;2023-01-23T02:15:05;26.27;;;14.27;;
51558;SDS011;61650;48.882;2.092;2023-01-23T02:17:32;25.95;;;13.93;;
51558;SDS011;61650;48.882;2.092;2023-01-23T02:20:10;25.13;;;13.80;;
51558;SDS011;61650;48.882;2.092;2023-01-23T02:28:06;23.63;;;14.65;;
51558;SDS011;61650;48.882;2.092;2023-01-23T02:30:33;23.98;;;14.00;;
51558;SDS011;61650;48.882;2.092;2023-01-23T02:33:10;23.10;;;12.75;;
51558;SDS011;61650;48.882;2.092;2023-01-23T02:35:37;24.10;;;14.27;;
51558;SDS011;61650;48.882;2.092;2023-01-23T02:38:04;23.10;;;13.05;;
51558;SDS011;61650;48.882;2.092;2023-01-23T02:40:33;22.77;;;13.77;;
51558;SDS011;61650;48.882;2.092;2023-01-23T02:43:04;24.42;;;13.98;;
51558;SDS011;61650;48.882;2.092;2023-01-23T02:45:32;25.52;;;13.73;;
51558;SDS011;61650;48.882;2.092;2023-01-23T02:47:58;24.17;;;13.23;;
51558;SDS011;61650;48.882;2.092;2023-01-23T02:50:25;24.60;;;14.77;;
51558;SDS011;61650;48.882;2.092;2023-01-23T02:52:52;23.15;;;12.82;;
51558;SDS011;61650;48.882;2.092;2023-01-23T02:55:19;24.90;;;14.73;;
51558;SDS011;61650;48.882;2.092;2023-01-23T02:57:46;27.83;;;15.27;;
51558;SDS011;61650;48.882;2.092;2023-01-23T03:00:12;28.17;;;14.52;;
51558;SDS011;61650;48.882;2.092;2023-01-23T03:02:47;25.25;;;14.32;;
51558;SDS011;61650;48.882;2.092;2023-01-23T03:05:15;25.30;;;13.88;;
51558;SDS011;61650;48.882;2.092;2023-01-23T03:07:42;25.38;;;13.50;;
51558;SDS011;61650;48.882;2.092;2023-01-23T03:10:09;24.90;;;14.50;;
51558;SDS011;61650;48.882;2.092;2023-01-23T03:12:35;25.38;;;14.45;;
51558;SDS011;61650;48.882;2.092;2023-01-23T03:15:07;27.08;;;16.20;;
51558;SDS011;61650;48.882;2.092;2023-01-23T03:17:34;26.92;;;15.68;;
51558;SDS011;61650;48.882;2.092;2023-01-23T03:20:00;28.98;;;15.32;;
51558;SDS011;61650;48.882;2.092;2023-01-23T03:22:27;23.95;;;13.90;;
51558;SDS011;61650;48.882;2.092;2023-01-23T03:24:53;27.03;;;15.17;;
51558;SDS011;61650;48.882;2.092;2023-01-23T03:27:19;30.10;;;15.70;;
51558;SDS011;61650;48.882;2.092;2023-01-23T03:29:45;28.83;;;15.30;;
51558;SDS011;61650;48.882;2.092;2023-01-23T03:32:29;28.10;;;15.90;;
51558;SDS011;61650;48.882;2.092;2023-01-23T03:34:55;28.30;;;16.17;;
51558;SDS011;61650;48.882;2.092;2023-01-23T03:37:21;31.15;;;16.67;;
51558;SDS011;61650;48.882;2.092;2023-01-23T03:39:47;28.77;;;15.97;;
51558;SDS011;61650;48.882;2.092;2023-01-23T03:42:34;26.48;;;14.90;;
51558;SDS011;61650;48.882;2.092;2023-01-23T03:45:00;25.88;;;16.17;;
51558;SDS011;61650;48.882;2.092;2023-01-23T03:47:26;29.38;;;14.98;;
51558;SDS011;61650;48.882;2.092;2023-01-23T03:49:52;23.87;;;15.00;;
51558;SDS011;61650;48.882;2.092;2023-01-23T03:52:18;29.87;;;16.03;;
51558;SDS011;61650;48.882;2.092;2023-01-23T03:54:43;28.27;;;14.83;;
51558;SDS011;61650;48.882;2.092;2023-01-23T03:57:09;30.50;;;16.60;;
51558;SDS011;61650;48.882;2.092;2023-01-23T03:59:35;31.33;;;16.00;;
51558;SDS011;61650;48.882;2.092;2023-01-23T04:02:00;28.57;;;15.30;;
51558;SDS011;61650;48.882;2.092;2023-01-23T04:04:29;28.58;;;15.65;;
51558;SDS011;61650;48.882;2.092;2023-01-23T04:06:55;27.40;;;16.25;;
51558;SDS011;61650;48.882;2.092;2023-01-23T04:09:21;28.47;;;15.00;;
51558;SDS011;61650;48.882;2.092;2023-01-23T04:11:51;25.30;;;16.60;;
51558;SDS011;61650;48.882;2.092;2023-01-23T04:14:21;24.45;;;15.27;;
51558;SDS011;61650;48.882;2.092;2023-01-23T04:16:47;27.98;;;15.90;;
51558;SDS011;61650;48.882;2.092;2023-01-23T04:19:13;27.23;;;15.50;;
51558;SDS011;61650;48.882;2.092;2023-01-23T04:21:39;26.37;;;14.93;;
51558;SDS011;61650;48.882;2.092;2023-01-23T04:24:04;29.60;;;16.20;;
51558;SDS011;61650;48.882;2.092;2023-01-23T04:26:30;29.20;;;16.20;;
51558;SDS011;61650;48.882;2.092;2023-01-23T04:28:58;32.83;;;16.85;;
51558;SDS011;61650;48.882;2.092;2023-01-23T04:31:23;28.90;;;15.83;;
51558;SDS011;61650;48.882;2.092;2023-01-23T04:33:49;29.80;;;16.33;;
51558;SDS011;61650;48.882;2.092;2023-01-23T04:36:15;27.17;;;17.07;;
51558;SDS011;61650;48.882;2.092;2023-01-23T04:38:41;27.25;;;15.48;;
51558;SDS011;61650;48.882;2.092;2023-01-23T04:41:06;29.43;;;15.73;;
51558;SDS011;61650;48.882;2.092;2023-01-23T04:43:33;28.13;;;16.65;;
51558;SDS011;61650;48.882;2.092;2023-01-23T04:45:59;28.83;;;17.73;;
51558;SDS011;61650;48.882;2.092;2023-01-23T04:48:25;30.17;;;16.00;;
51558;SDS011;61650;48.882;2.092;2023-01-23T04:50:51;33.60;;;16.93;;
51558;SDS011;61650;48.882;2.092;2023-01-23T04:53:17;32.30;;;17.30;;
51558;SDS011;61650;48.882;2.092;2023-01-23T04:55:45;31.98;;;17.10;;
51558;SDS011;61650;48.882;2.092;2023-01-23T04:58:11;26.48;;;15.25;;
51558;SDS011;61650;48.882;2.092;2023-01-23T05:00:37;28.47;;;16.63;;
51558;SDS011;61650;48.882;2.092;2023-01-23T05:03:02;30.37;;;16.60;;
51558;SDS011;61650;48.882;2.092;2023-01-23T05:05:28;30.92;;;16.02;;
51558;SDS011;61650;48.882;2.092;2023-01-23T05:07:55;30.55;;;16.88;;
51558;SDS011;61650;48.882;2.092;2023-01-23T05:10:20;26.07;;;15.80;;
51558;SDS011;61650;48.882;2.092;2023-01-23T05:12:46;28.00;;;15.63;;
51558;SDS011;61650;48.882;2.092;2023-01-23T05:15:12;29.17;;;16.60;;
51558;SDS011;61650;48.882;2.092;2023-01-23T05:17:37;32.83;;;17.27;;
51558;SDS011;61650;48.882;2.092;2023-01-23T05:20:03;30.37;;;16.67;;
51558;SDS011;61650;48.882;2.092;2023-01-23T05:22:29;34.13;;;17.35;;
51558;SDS011;61650;48.882;2.092;2023-01-23T05:24:55;28.47;;;15.37;;
51558;SDS011;61650;48.882;2.092;2023-01-23T05:27:21;31.90;;;16.70;;
51558;SDS011;61650;48.882;2.092;2023-01-23T05:29:46;33.90;;;17.80;;
51558;SDS011;61650;48.882;2.092;2023-01-23T05:32:12;30.25;;;15.77;;
51558;SDS011;61650;48.882;2.092;2023-01-23T05:34:38;32.33;;;16.80;;
51558;SDS011;61650;48.882;2.092;2023-01-23T05:37:03;33.90;;;18.07;;
51558;SDS011;61650;48.882;2.092;2023-01-23T05:39:30;33.73;;;17.53;;
51558;SDS011;61650;48.882;2.092;2023-01-23T05:41:56;32.38;;;17.02;;
51558;SDS011;61650;48.882;2.092;2023-01-23T05:44:22;39.00;;;17.93;;
51558;SDS011;61650;48.882;2.092;2023-01-23T05:46:48;32.60;;;16.15;;
51558;SDS011;61650;48.882;2.092;2023-01-23T05:49:14;32.17;;;16.63;;
51558;SDS011;61650;48.882;2.092;2023-01-23T05:51:39;33.67;;;16.70;;
51558;SDS011;61650;48.882;2.092;2023-01-23T05:54:05;35.47;;;17.50;;
51558;SDS011;61650;48.882;2.092;2023-01-23T05:56:31;34.20;;;16.70;;
51558;SDS011;61650;48.882;2.092;2023-01-23T05:58:57;35.80;;;17.07;;
51558;SDS011;61650;48.882;2.092;2023-01-23T06:01:22;32.33;;;15.90;;
51558;SDS011;61650;48.882;2.092;2023-01-23T06:03:48;38.10;;;18.37;;
51558;SDS011;61650;48.882;2.092;2023-01-23T06:06:13;31.70;;;17.37;;
51558;SDS011;61650;48.882;2.092;2023-01-23T06:08:39;31.30;;;15.60;;
51558;SDS011;61650;48.882;2.092;2023-01-23T06:11:04;32.60;;;18.30;;
51558;SDS011;61650;48.882;2.092;2023-01-23T06:13:30;35.40;;;17.90;;
51558;SDS011;61650;48.882;2.092;2023-01-23T06:15:56;32.90;;;17.83;;
51558;SDS011;61650;48.882;2.092;2023-01-23T06:18:22;34.00;;;16.93;;
51558;SDS011;61650;48.882;2.092;2023-01-23T06:20:48;35.70;;;17.37;;
51558;SDS011;61650;48.882;2.092;2023-01-23T06:23:13;31.27;;;17.40;;
51558;SDS011;61650;48.882;2.092;2023-01-23T06:25:40;31.15;;;16.75;;
51558;SDS011;61650;48.882;2.092;2023-01-23T06:28:06;35.67;;;16.60;;
51558;SDS011;61650;48.882;2.092;2023-01-23T06:30:32;31.80;;;16.77;;
51558;SDS011;61650;48.882;2.092;2023-01-23T06:32:58;33.33;;;16.37;;
51558;SDS011;61650;48.882;2.092;2023-01-23T06:35:23;27.10;;;14.90;;
51558;SDS011;61650;48.882;2.092;2023-01-23T06:37:49;32.07;;;16.67;;
51558;SDS011;61650;48.882;2.092;2023-01-23T06:40:15;28.27;;;15.30;;
51558;SDS011;61650;48.882;2.092;2023-01-23T06:42:41;28.48;;;15.70;;
51558;SDS011;61650;48.882;2.092;2023-01-23T06:45:10;34.20;;;15.32;;
51558;SDS011;61650;48.882;2.092;2023-01-23T06:47:36;33.15;;;16.63;;
51558;SDS011;61650;48.882;2.092;2023-01-23T06:50:02;32.37;;;16.73;;
51558;SDS011;61650;48.882;2.092;2023-01-23T06:52:28;27.02;;;14.95;;
51558;SDS011;61650;48.882;2.092;2023-01-23T06:54:54;27.97;;;14.73;;
51558;SDS011;61650;48.882;2.092;2023-01-23T06:57:19;27.43;;;15.87;;
51558;SDS011;61650;48.882;2.092;2023-01-23T06:59:45;32.73;;;16.87;;
51558;SDS011;61650;48.882;2.092;2023-01-23T07:02:11;28.40;;;16.40;;
51558;SDS011;61650;48.882;2.092;2023-01-23T07:04:37;33.38;;;15.90;;
51558;SDS011;61650;48.882;2.092;2023-01-23T07:07:03;27.67;;;16.37;;
51558;SDS011;61650;48.882;2.092;2023-01-23T07:09:28;27.30;;;15.13;;
51558;SDS011;61650;48.882;2.092;2023-01-23T07:11:54;27.60;;;16.40;;
51558;SDS011;61650;48.882;2.092;2023-01-23T07:14:19;27.37;;;15.60;;
51558;SDS011;61650;48.882;2.092;2023-01-23T07:16:45;27.08;;;14.98;;
51558;SDS011;61650;48.882;2.092;2023-01-23T07:19:11;31.07;;;15.80;;
51558;SDS011;61650;48.882;2.092;2023-01-23T07:21:37;30.93;;;15.30;;
51558;SDS011;61650;48.882;2.092;2023-01-23T07:24:03;30.97;;;15.40;;
51558;SDS011;61650;48.882;2.092;2023-01-23T07:26:29;29.97;;;16.20;;
51558;SDS011;61650;48.882;2.092;2023-01-23T07:28:54;28.70;;;15.50;;
51558;SDS011;61650;48.882;2.092;2023-01-23T07:31:20;27.40;;;14.20;;
51558;SDS011;61650;48.882;2.092;2023-01-23T07:33:46;31.70;;;14.10;;
51558;SDS011;61650;48.882;2.092;2023-01-23T07:36:11;29.27;;;15.67;;
51558;SDS011;61650;48.882;2.092;2023-01-23T07:38:42;28.85;;;15.73;;
51558;SDS011;61650;48.882;2.092;2023-01-23T07:41:07;25.87;;;14.60;;
51558;SDS011;61650;48.882;2.092;2023-01-23T07:43:33;31.30;;;15.73;;
51558;SDS011;61650;48.882;2.092;2023-01-23T07:45:59;30.13;;;15.80;;
51558;SDS011;61650;48.882;2.092;2023-01-23T07:48:25;25.05;;;13.23;;
51558;SDS011;61650;48.882;2.092;2023-01-23T07:50:51;27.00;;;14.48;;
51558;SDS011;61650;48.882;2.092;2023-01-23T07:53:17;28.30;;;15.57;;
51558;SDS011;61650;48.882;2.092;2023-01-23T07:55:43;29.10;;;15.37;;
51558;SDS011;61650;48.882;2.092;2023-01-23T07:58:09;29.05;;;15.40;;
51558;SDS011;61650;48.882;2.092;2023-01-23T08:00:34;25.70;;;15.50;;
51558;SDS011;61650;48.882;2.092;2023-01-23T08:03:00;31.00;;;16.40;;
51558;SDS011;61650;48.882;2.092;2023-01-23T08:05:26;28.03;;;14.80;;
51558;SDS011;61650;48.882;2.092;2023-01-23T08:07:51;28.13;;;14.20;;
51558;SDS011;61650;48.882;2.092;2023-01-23T08:10:17;28.37;;;14.83;;
51558;SDS011;61650;48.882;2.092;2023-01-23T08:12:43;27.37;;;14.80;;
51558;SDS011;61650;48.882;2.092;2023-01-23T08:15:08;33.33;;;15.80;;
51558;SDS011;61650;48.882;2.092;2023-01-23T08:17:34;27.90;;;15.63;;
51558;SDS011;61650;48.882;2.092;2023-01-23T08:20:00;26.60;;;14.90;;
51558;SDS011;61650;48.882;2.092;2023-01-23T08:22:26;28.60;;;15.40;;
51558;SDS011;61650;48.882;2.092;2023-01-23T08:24:51;32.70;;;16.07;;
51558;SDS011;61650;48.882;2.092;2023-01-23T08:27:17;31.37;;;16.20;;
51558;SDS011;61650;48.882;2.092;2023-01-23T08:29:42;28.87;;;15.20;;
51558;SDS011;61650;48.882;2.092;2023-01-23T08:32:08;31.50;;;15.67;;
51558;SDS011;61650;48.882;2.092;2023-01-23T08:34:34;28.40;;;15.50;;
51558;SDS011;61650;48.882;2.092;2023-01-23T08:36:59;29.60;;;14.67;;
51558;SDS011;61650;48.882;2.092;2023-01-23T08:39:25;26.37;;;15.23;;
51558;SDS011;61650;48.882;2.092;2023-01-23T08:41:51;28.40;;;14.90;;
51558;SDS011;61650;48.882;2.092;2023-01-23T08:44:16;27.20;;;14.73;;
51558;SDS011;61650;48.882;2.092;2023-01-23T08:46:42;23.37;;;13.70;;
51558;SDS011;61650;48.882;2.092;2023-01-23T08:49:09;30.08;;;15.55;;
51558;SDS011;61650;48.882;2.092;2023-01-23T08:51:34;25.90;;;13.93;;
51558;SDS011;61650;48.882;2.092;2023-01-23T08:54:00;26.83;;;15.07;;
51558;SDS011;61650;48.882;2.092;2023-01-23T08:56:25;30.37;;;15.07;;
51558;SDS011;61650;48.882;2.092;2023-01-23T08:58:51;24.97;;;15.53;;
51558;SDS011;61650;48.882;2.092;2023-01-23T09:01:17;26.00;;;14.33;;
51558;SDS011;61650;48.882;2.092;2023-01-23T09:03:45;26.58;;;14.65;;
51558;SDS011;61650;48.882;2.092;2023-01-23T09:06:12;25.58;;;13.63;;
51558;SDS011;61650;48.882;2.092;2023-01-23T09:08:39;24.15;;;14.18;;
51558;SDS011;61650;48.882;2.092;2023-01-23T09:11:05;26.37;;;14.43;;
51558;SDS011;61650;48.882;2.092;2023-01-23T09:13:32;25.38;;;14.60;;
51558;SDS011;61650;48.882;2.092;2023-01-23T09:15:59;27.60;;;14.52;;
51558;SDS011;61650;48.882;2.092;2023-01-23T09:18:25;26.67;;;14.40;;
51558;SDS011;61650;48.882;2.092;2023-01-23T09:20:51;27.20;;;13.60;;
51558;SDS011;61650;48.882;2.092;2023-01-23T09:23:17;22.20;;;13.07;;
51558;SDS011;61650;48.882;2.092;2023-01-23T09:25:43;22.23;;;13.43;;
51558;SDS011;61650;48.882;2.092;2023-01-23T09:28:09;27.80;;;14.83;;
51558;SDS011;61650;48.882;2.092;2023-01-23T09:30:35;25.67;;;13.20;;
51558;SDS011;61650;48.882;2.092;2023-01-23T09:33:01;27.57;;;13.70;;
51558;SDS011;61650;48.882;2.092;2023-01-23T09:35:27;26.40;;;13.47;;
51558;SDS011;61650;48.882;2.092;2023-01-23T09:37:52;24.00;;;13.90;;
51558;SDS011;61650;48.882;2.092;2023-01-23T09:40:24;27.42;;;14.25;;
51558;SDS011;61650;48.882;2.092;2023-01-23T09:43:04;23.27;;;12.65;;
51558;SDS011;61650;48.882;2.092;2023-01-23T09:45:42;24.23;;;13.70;;
51558;SDS011;61650;48.882;2.092;2023-01-23T09:48:27;29.45;;;15.88;;
51558;SDS011;61650;48.882;2.092;2023-01-23T09:50:59;26.08;;;13.73;;
51558;SDS011;61650;48.882;2.092;2023-01-23T09:53:37;23.83;;;13.80;;
51558;SDS011;61650;48.882;2.092;2023-01-23T09:58:58;26.38;;;13.52;;
51558;SDS011;61650;48.882;2.092;2023-01-23T10:01:25;23.85;;;12.90;;
51558;SDS011;61650;48.882;2.092;2023-01-23T10:03:54;26.67;;;13.50;;
51558;SDS011;61650;48.882;2.092;2023-01-23T10:19:46;24.98;;;12.65;;
51558;SDS011;61650;48.882;2.092;2023-01-23T10:22:36;21.95;;;11.82;;
51558;SDS011;61650;48.882;2.092;2023-01-23T10:25:25;25.98;;;13.60;;
51558;SDS011;61650;48.882;2.092;2023-01-23T10:27:54;20.23;;;11.30;;
51558;SDS011;61650;48.882;2.092;2023-01-23T10:30:25;20.20;;;11.57;;
51558;SDS011;61650;48.882;2.092;2023-01-23T10:35:35;26.77;;;13.70;;
51558;SDS011;61650;48.882;2.092;2023-01-23T10:41:01;24.05;;;12.32;;
51558;SDS011;61650;48.882;2.092;2023-01-23T10:43:51;21.80;;;11.80;;
51558;SDS011;61650;48.882;2.092;2023-01-23T10:46:28;21.02;;;12.43;;
51558;SDS011;61650;48.882;2.092;2023-01-23T10:48:59;21.40;;;11.65;;
51558;SDS011;61650;48.882;2.092;2023-01-23T10:51:34;24.70;;;12.30;;
51558;SDS011;61650;48.882;2.092;2023-01-23T10:54:18;25.70;;;13.60;;
51558;SDS011;61650;48.882;2.092;2023-01-23T10:59:25;24.27;;;12.73;;
51558;SDS011;61650;48.882;2.092;2023-01-23T11:04:40;17.98;;;10.95;;
51558;SDS011;61650;48.882;2.092;2023-01-23T11:07:17;25.77;;;13.65;;
51558;SDS011;61650;48.882;2.092;2023-01-23T11:09:56;27.42;;;11.20;;
51558;SDS011;61650;48.882;2.092;2023-01-23T11:12:26;22.08;;;13.00;;
51558;SDS011;61650;48.882;2.092;2023-01-23T11:15:35;24.30;;;13.05;;
51558;SDS011;61650;48.882;2.092;2023-01-23T11:17:53;21.88;;;12.13;;
51558;SDS011;61650;48.882;2.092;2023-01-23T11:20:25;22.75;;;12.40;;
51558;SDS011;61650;48.882;2.092;2023-01-23T11:23:05;24.83;;;13.00;;
51558;SDS011;61650;48.882;2.092;2023-01-23T11:28:17;24.00;;;12.32;;
51558;SDS011;61650;48.882;2.092;2023-01-23T11:36:52;17.60;;;11.60;;
51558;SDS011;61650;48.882;2.092;2023-01-23T11:38:59;20.48;;;11.65;;
51558;SDS011;61650;48.882;2.092;2023-01-23T11:41:30;20.40;;;10.80;;
51558;SDS011;61650;48.882;2.092;2023-01-23T11:43:57;21.42;;;11.10;;
51558;SDS011;61650;48.882;2.092;2023-01-23T12:03:38;15.18;;;8.80;;
51558;SDS011;61650;48.882;2.092;2023-01-23T12:11:35;17.25;;;9.68;;
51558;SDS011;61650;48.882;2.092;2023-01-23T12:14:26;13.70;;;8.90;;
51558;SDS011;61650;48.882;2.092;2023-01-23T12:17:12;14.52;;;9.32;;
51558;SDS011;61650;48.882;2.092;2023-01-23T12:25:52;18.30;;;10.13;;
51558;SDS011;61650;48.882;2.092;2023-01-23T12:42:16;17.77;;;9.48;;
51558;SDS011;61650;48.882;2.092;2023-01-23T12:47:36;19.08;;;10.88;;
51558;SDS011;61650;48.882;2.092;2023-01-23T12:50:19;19.70;;;10.32;;
51558;SDS011;61650;48.882;2.092;2023-01-23T12:52:52;17.73;;;10.70;;
51558;SDS011;61650;48.882;2.092;2023-01-23T12:55:29;19.92;;;11.02;;
51558;SDS011;61650;48.882;2.092;2023-01-23T12:58:00;16.73;;;11.50;;
51558;SDS011;61650;48.882;2.092;2023-01-23T13:02:54;19.70;;;11.60;;
51558;SDS011;61650;48.882;2.092;2023-01-23T13:05:46;19.35;;;12.05;;
51558;SDS011;61650;48.882;2.092;2023-01-23T13:08:28;16.55;;;9.30;;
51558;SDS011;61650;48.882;2.092;2023-01-23T13:11:08;17.88;;;9.35;;
51558;SDS011;61650;48.882;2.092;2023-01-23T13:13:58;21.60;;;11.05;;
51558;SDS011;61650;48.882;2.092;2023-01-23T13:16:26;20.20;;;10.00;;
51558;SDS011;61650;48.882;2.092;2023-01-23T13:18:57;16.83;;;9.23;;
51558;SDS011;61650;48.882;2.092;2023-01-23T13:24:44;15.00;;;8.43;;
51558;SDS011;61650;48.882;2.092;2023-01-23T13:29:59;14.00;;;8.67;;
51558;SDS011;61650;48.882;2.092;2023-01-23T13:32:29;16.02;;;10.25;;
51558;SDS011;61650;48.882;2.092;2023-01-23T13:34:55;14.38;;;8.43;;
51558;SDS011;61650;48.882;2.092;2023-01-23T13:42:44;16.50;;;10.05;;
51558;SDS011;61650;48.882;2.092;2023-01-23T13:51:17;15.52;;;8.55;;
51558;SDS011;61650;48.882;2.092;2023-01-23T13:53:45;13.63;;;7.60;;
51558;SDS011;61650;48.882;2.092;2023-01-23T13:56:32;9.95;;;6.70;;
51558;SDS011;61650;48.882;2.092;2023-01-23T13:59:05;12.23;;;7.00;;
51558;SDS011;61650;48.882;2.092;2023-01-23T14:01:40;13.65;;;7.53;;
51558;SDS011;61650;48.882;2.092;2023-01-23T14:04:38;13.05;;;7.70;;
51558;SDS011;61650;48.882;2.092;2023-01-23T14:12:47;12.98;;;7.80;;
51558;SDS011;61650;48.882;2.092;2023-01-23T14:15:20;12.32;;;8.52;;
51558;SDS011;61650;48.882;2.092;2023-01-23T14:18:17;12.40;;;7.82;;
51558;SDS011;61650;48.882;2.092;2023-01-23T14:20:48;16.30;;;9.50;;
51558;SDS011;61650;48.882;2.092;2023-01-23T14:23:36;13.82;;;8.82;;
51558;SDS011;61650;48.882;2.092;2023-01-23T14:26:06;11.98;;;7.85;;
51558;SDS011;61650;48.882;2.092;2023-01-23T14:28:35;13.27;;;7.85;;
51558;SDS011;61650;48.882;2.092;2023-01-23T14:31:02;13.55;;;7.60;;
51558;SDS011;61650;48.882;2.092;2023-01-23T14:33:42;13.45;;;8.45;;
51558;SDS011;61650;48.882;2.092;2023-01-23T14:36:15;14.40;;;7.93;;
51558;SDS011;61650;48.882;2.092;2023-01-23T14:38:43;15.55;;;8.70;;
51558;SDS011;61650;48.882;2.092;2023-01-23T14:41:11;12.10;;;6.95;;
51558;SDS011;61650;48.882;2.092;2023-01-23T14:43:37;15.52;;;8.45;;
51558;SDS011;61650;48.882;2.092;2023-01-23T14:46:09;14.13;;;8.45;;
51558;SDS011;61650;48.882;2.092;2023-01-23T14:48:37;12.27;;;7.60;;
51558;SDS011;61650;48.882;2.092;2023-01-23T14:51:13;13.35;;;7.60;;
51558;SDS011;61650;48.882;2.092;2023-01-23T14:53:52;14.48;;;7.63;;
51558;SDS011;61650;48.882;2.092;2023-01-23T14:56:20;14.48;;;8.60;;
51558;SDS011;61650;48.882;2.092;2023-01-23T14:58:51;15.65;;;7.97;;
51558;SDS011;61650;48.882;2.092;2023-01-23T15:01:18;12.82;;;8.30;;
51558;SDS011;61650;48.882;2.092;2023-01-23T15:03:53;13.47;;;8.10;;
51558;SDS011;61650;48.882;2.092;2023-01-23T15:06:20;13.93;;;8.35;;
51558;SDS011;61650;48.882;2.092;2023-01-23T15:08:47;16.15;;;9.32;;
51558;SDS011;61650;48.882;2.092;2023-01-23T15:11:13;15.88;;;8.15;;
51558;SDS011;61650;48.882;2.092;2023-01-23T15:13:41;12.95;;;7.80;;
51558;SDS011;61650;48.882;2.092;2023-01-23T15:16:13;14.77;;;8.43;;
51558;SDS011;61650;48.882;2.092;2023-01-23T15:18:56;13.90;;;8.35;;
51558;SDS011;61650;48.882;2.092;2023-01-23T15:21:27;12.73;;;8.05;;
51558;SDS011;61650;48.882;2.092;2023-01-23T15:24:37;14.10;;;8.38;;
51558;SDS011;61650;48.882;2.092;2023-01-23T15:26:57;13.25;;;8.15;;
51558;SDS011;61650;48.882;2.092;2023-01-23T15:29:27;16.92;;;8.55;;
51558;SDS011;61650;48.882;2.092;2023-01-23T15:31:53;14.43;;;7.93;;
51558;SDS011;61650;48.882;2.092;2023-01-23T15:34:24;16.08;;;8.75;;
51558;SDS011;61650;48.882;2.092;2023-01-23T15:39:55;16.23;;;9.38;;
51558;SDS011;61650;48.882;2.092;2023-01-23T15:42:26;13.65;;;7.80;;
51558;SDS011;61650;48.882;2.092;2023-01-23T15:44:56;17.67;;;10.00;;
51558;SDS011;61650;48.882;2.092;2023-01-23T15:47:25;12.48;;;8.10;;
51558;SDS011;61650;48.882;2.092;2023-01-23T15:49:55;17.45;;;10.10;;
51558;SDS011;61650;48.882;2.092;2023-01-23T15:52:22;17.05;;;9.80;;
51558;SDS011;61650;48.882;2.092;2023-01-23T15:54:50;18.15;;;9.38;;
51558;SDS011;61650;48.882;2.092;2023-01-23T15:57:19;16.85;;;9.75;;
51558;SDS011;61650;48.882;2.092;2023-01-23T15:59:44;18.87;;;10.60;;
51558;SDS011;61650;48.882;2.092;2023-01-23T16:02:17;20.50;;;9.70;;
51558;SDS011;61650;48.882;2.092;2023-01-23T16:04:44;18.88;;;10.65;;
51558;SDS011;61650;48.882;2.092;2023-01-23T16:07:18;13.18;;;8.75;;
51558;SDS011;61650;48.882;2.092;2023-01-23T16:09:48;15.48;;;9.13;;
51558;SDS011;61650;48.882;2.092;2023-01-23T16:12:16;18.15;;;10.40;;
51558;SDS011;61650;48.882;2.092;2023-01-23T16:14:44;17.73;;;9.63;;
51558;SDS011;61650;48.882;2.092;2023-01-23T16:17:11;17.83;;;10.13;;
51558;SDS011;61650;48.882;2.092;2023-01-23T16:19:37;13.63;;;9.20;;
51558;SDS011;61650;48.882;2.092;2023-01-23T16:22:02;16.60;;;9.93;;
51558;SDS011;61650;48.882;2.092;2023-01-23T16:24:28;18.93;;;9.47;;
51558;SDS011;61650;48.882;2.092;2023-01-23T16:27:03;17.27;;;10.00;;
51558;SDS011;61650;48.882;2.092;2023-01-23T16:29:29;17.80;;;9.17;;
51558;SDS011;61650;48.882;2.092;2023-01-23T16:31:57;15.27;;;9.50;;